Time,TemperatureF,DewpointF,PressureIn,WindDirection,WindDirectionDegrees,WindSpeedMPH,WindSpeedGustMPH,Humidity,HourlyPrecipIn,Conditions,Clouds,dailyrainin,SoftwareType,DateUTC
2013-10-01 00:04:00,68.2,52.9,29.50,South,180,7.8,-999.0,58,-99.99,,,0.00,Acu-Link.com,2013-10-01 05:04:00,
2013-10-01 00:20:00,68.2,52.9,29.50,SSW,202,11.4,-999.0,58,-99.99,,,0.00,Acu-Link.com,2013-10-01 05:20:00,
2013-10-01 00:35:00,68.0,52.7,29.51,SSW,202,7.8,-999.0,58,-99.99,,,0.00,Acu-Link.com,2013-10-01 05:35:00,
2013-10-01 00:50:00,67.8,52.9,29.51,SW,225,6.3,-999.0,59,-99.99,,,0.00,Acu-Link.com,2013-10-01 05:50:00,
2013-10-01 01:05:00,67.6,52.8,29.53,SE,135,8.3,-999.0,59,-99.99,,,0.00,Acu-Link.com,2013-10-01 06:05:00,
2013-10-01 01:20:00,66.9,53.0,29.53,SSW,202,9.9,-999.0,61,-99.99,,,0.00,Acu-Link.com,2013-10-01 06:20:00,
2013-10-01 01:35:00,66.6,52.7,29.53,South,180,8.9,-999.0,61,-99.99,,,0.00,Acu-Link.com,2013-10-01 06:35:00,
2013-10-01 01:50:00,67.1,53.2,29.54,SSW,202,10.4,-999.0,61,-99.99,,,0.00,Acu-Link.com,2013-10-01 06:50:00,
2013-10-01 02:05:00,66.7,52.8,29.55,SSW,202,8.3,-999.0,61,-99.99,,,0.00,Acu-Link.com,2013-10-01 07:05:00,
2013-10-01 02:20:00,66.2,52.8,29.56,SSW,202,10.9,-999.0,62,-99.99,,,0.00,Acu-Link.com,2013-10-01 07:20:00,
2013-10-01 02:51:00,66.2,53.2,29.56,SSW,202,8.3,-999.0,63,-99.99,,,0.00,Acu-Link.com,2013-10-01 07:51:00,
2013-10-01 03:07:00,66.7,52.4,29.57,SW,225,9.9,-999.0,60,-99.99,,,0.00,Acu-Link.com,2013-10-01 08:07:00,
2013-10-01 03:22:00,66.9,52.1,29.58,West,270,8.9,-999.0,59,-99.99,,,0.00,Acu-Link.com,2013-10-01 08:22:00,
2013-10-01 03:38:00,66.2,50.5,29.60,WNW,292,8.9,-999.0,57,-99.99,,,0.00,Acu-Link.com,2013-10-01 08:38:00,
2013-10-01 03:53:00,65.8,50.1,29.60,WNW,292,10.4,-999.0,57,-99.99,,,0.00,Acu-Link.com,2013-10-01 08:53:00,
2013-10-01 04:09:00,65.1,50.4,29.60,West,270,11.4,-999.0,59,-99.99,,,0.00,Acu-Link.com,2013-10-01 09:09:00,
2013-10-01 04:24:00,64.4,50.2,29.62,West,270,9.9,-999.0,60,-99.99,,,0.00,Acu-Link.com,2013-10-01 09:24:00,
2013-10-01 04:39:00,64.0,50.3,29.62,WNW,292,11.9,-999.0,61,-99.99,,,0.00,Acu-Link.com,2013-10-01 09:39:00,
2013-10-01 05:10:00,63.1,50.3,29.62,NW,315,11.4,-999.0,63,-99.99,,,0.00,Acu-Link.com,2013-10-01 10:10:00,
2013-10-01 05:25:00,62.4,49.6,29.63,NNW,337,10.9,-999.0,63,-99.99,,,0.00,Acu-Link.com,2013-10-01 10:25:00,
2013-10-01 05:42:00,62.1,49.8,29.64,NNW,337,10.9,-999.0,64,-99.99,,,0.00,Acu-Link.com,2013-10-01 10:42:00,
2013-10-01 05:57:00,61.7,49.4,29.65,NNW,337,11.4,-999.0,64,-99.99,,,0.00,Acu-Link.com,2013-10-01 10:57:00,
2013-10-01 06:13:00,60.6,49.2,29.67,NW,315,11.4,-999.0,66,-99.99,,,0.00,Acu-Link.com,2013-10-01 11:13:00,
2013-10-01 06:28:00,60.4,49.4,29.68,West,270,13.5,-999.0,67,-99.99,,,0.00,Acu-Link.com,2013-10-01 11:28:00,
2013-10-01 06:43:00,59.7,49.1,29.70,North,0,14.0,-999.0,68,-99.99,,,0.00,Acu-Link.com,2013-10-01 11:43:00,
2013-10-01 06:59:00,59.4,48.8,29.70,NW,315,9.4,-999.0,68,-99.99,,,0.00,Acu-Link.com,2013-10-01 11:59:00,
2013-10-01 07:14:00,58.6,48.5,29.71,West,270,7.8,-999.0,69,-99.99,,,0.00,Acu-Link.com,2013-10-01 12:14:00,
2013-10-01 07:29:00,56.1,46.8,29.75,NW,315,10.9,-999.0,71,-99.99,,,0.00,Acu-Link.com,2013-10-01 12:29:00,
2013-10-01 07:45:00,55.9,46.6,29.76,WNW,292,8.9,-999.0,71,-99.99,,,0.00,Acu-Link.com,2013-10-01 12:45:00,
2013-10-01 08:00:00,55.9,46.6,29.77,NW,315,8.9,-999.0,71,-99.99,,,0.00,Acu-Link.com,2013-10-01 13:00:00,
2013-10-01 08:15:00,56.1,46.5,29.77,West,270,7.3,-999.0,70,-99.99,,,0.00,Acu-Link.com,2013-10-01 13:15:00,
2013-10-01 08:30:00,56.8,46.7,29.78,WNW,292,7.8,-999.0,69,-99.99,,,0.00,Acu-Link.com,2013-10-01 13:30:00,
2013-10-01 08:45:00,57.2,46.7,29.79,NW,315,10.4,-999.0,68,-99.99,,,0.00,Acu-Link.com,2013-10-01 13:45:00,
2013-10-01 09:00:00,58.3,47.0,29.80,West,270,11.9,-999.0,66,-99.99,,,0.00,Acu-Link.com,2013-10-01 14:00:00,
2013-10-01 09:15:00,58.8,46.2,29.81,NW,315,5.3,-999.0,63,-99.99,,,0.00,Acu-Link.com,2013-10-01 14:15:00,
2013-10-01 09:31:00,59.7,45.3,29.81,West,270,6.3,-999.0,59,-99.99,,,0.00,Acu-Link.com,2013-10-01 14:31:00,
2013-10-01 09:46:00,61.9,45.1,29.82,NNW,337,8.9,-999.0,54,-99.99,,,0.00,Acu-Link.com,2013-10-01 14:46:00,
2013-10-01 10:01:00,63.0,44.6,29.83,NNW,337,8.9,-999.0,51,-99.99,,,0.00,Acu-Link.com,2013-10-01 15:01:00,
2013-10-01 10:31:00,63.3,44.3,29.83,North,0,8.9,-999.0,50,-99.99,,,0.00,Acu-Link.com,2013-10-01 15:31:00,
2013-10-01 10:46:00,65.5,44.2,29.84,NNW,337,5.3,-999.0,46,-99.99,,,0.00,Acu-Link.com,2013-10-01 15:46:00,
2013-10-01 11:02:00,66.4,44.4,29.84,NW,315,5.8,-999.0,45,-99.99,,,0.00,Acu-Link.com,2013-10-01 16:02:00,
2013-10-01 11:17:00,67.8,43.2,29.84,West,270,4.7,-999.0,41,-99.99,,,0.00,Acu-Link.com,2013-10-01 16:17:00,
2013-10-01 11:32:00,69.3,41.9,29.84,West,270,7.8,-999.0,37,-99.99,,,0.00,Acu-Link.com,2013-10-01 16:32:00,
2013-10-01 11:47:00,70.5,40.8,29.84,NW,315,8.3,-999.0,34,-99.99,,,0.00,Acu-Link.com,2013-10-01 16:47:00,
2013-10-01 12:02:00,70.5,40.0,29.85,West,270,7.3,-999.0,33,-99.99,,,0.00,Acu-Link.com,2013-10-01 17:02:00,
2013-10-01 12:18:00,72.0,38.9,29.85,West,270,10.4,-999.0,30,-99.99,,,0.00,Acu-Link.com,2013-10-01 17:18:00,
2013-10-01 12:33:00,72.0,37.1,29.85,WNW,292,8.3,-999.0,28,-99.99,,,0.00,Acu-Link.com,2013-10-01 17:33:00,
2013-10-01 12:48:00,72.9,37.0,29.85,WNW,292,6.8,-999.0,27,-99.99,,,0.00,Acu-Link.com,2013-10-01 17:48:00,
2013-10-01 13:04:00,73.9,37.8,29.85,WNW,292,11.4,-999.0,27,-99.99,,,0.00,Acu-Link.com,2013-10-01 18:04:00,
2013-10-01 13:19:00,74.5,35.3,29.84,West,270,6.3,-999.0,24,-99.99,,,0.00,Acu-Link.com,2013-10-01 18:19:00,
2013-10-01 13:34:00,73.9,33.8,29.85,NNW,337,3.7,-999.0,23,-99.99,,,0.00,Acu-Link.com,2013-10-01 18:34:00,
2013-10-01 13:49:00,75.0,34.7,29.85,NNW,337,5.8,-999.0,23,-99.99,,,0.00,Acu-Link.com,2013-10-01 18:49:00,
2013-10-01 14:04:00,75.0,33.6,29.85,NNW,337,9.9,-999.0,22,-99.99,,,0.00,Acu-Link.com,2013-10-01 19:04:00,
2013-10-01 14:19:00,75.7,33.0,29.85,West,270,10.4,-999.0,21,-99.99,,,0.00,Acu-Link.com,2013-10-01 19:19:00,
2013-10-01 14:35:00,75.9,31.9,29.85,WNW,292,10.4,-999.0,20,-99.99,,,0.00,Acu-Link.com,2013-10-01 19:35:00,
2013-10-01 14:50:00,76.1,33.3,29.85,West,270,9.4,-999.0,21,-99.99,,,0.00,Acu-Link.com,2013-10-01 19:50:00,
2013-10-01 15:05:00,75.7,33.0,29.84,WNW,292,7.8,-999.0,21,-99.99,,,0.00,Acu-Link.com,2013-10-01 20:05:00,
2013-10-01 15:20:00,75.7,33.0,29.84,NE,45,6.8,-999.0,21,-99.99,,,0.00,Acu-Link.com,2013-10-01 20:20:00,
2013-10-01 15:35:00,75.2,32.6,29.84,West,270,7.8,-999.0,21,-99.99,,,0.00,Acu-Link.com,2013-10-01 20:35:00,
2013-10-01 15:51:00,76.5,32.4,29.85,West,270,6.3,-999.0,20,-99.99,,,0.00,Acu-Link.com,2013-10-01 20:51:00,
2013-10-01 16:06:00,75.7,33.0,29.84,West,270,2.2,-999.0,21,-99.99,,,0.00,Acu-Link.com,2013-10-01 21:06:00,
2013-10-01 16:21:00,76.3,29.7,29.84,West,270,5.3,-999.0,18,-99.99,,,0.00,Acu-Link.com,2013-10-01 21:21:00,
2013-10-01 16:36:00,75.6,34.1,29.83,North,0,4.2,-999.0,22,-99.99,,,0.00,Acu-Link.com,2013-10-01 21:36:00,
2013-10-01 16:51:00,76.6,31.2,29.83,West,270,5.3,-999.0,19,-99.99,,,0.00,Acu-Link.com,2013-10-01 21:51:00,
2013-10-01 17:07:00,76.5,32.4,29.83,NW,315,3.7,-999.0,20,-99.99,,,0.00,Acu-Link.com,2013-10-01 22:07:00,
2013-10-01 17:22:00,76.3,33.5,29.84,WNW,292,4.2,-999.0,21,-99.99,,,0.00,Acu-Link.com,2013-10-01 22:22:00,
2013-10-01 17:37:00,75.9,33.2,29.83,West,270,4.2,-999.0,21,-99.99,,,0.00,Acu-Link.com,2013-10-01 22:37:00,
2013-10-01 17:53:00,76.1,33.3,29.83,North,0,1.7,-999.0,21,-99.99,,,0.00,Acu-Link.com,2013-10-01 22:53:00,
2013-10-01 18:08:00,74.8,34.5,29.83,NW,315,3.2,-999.0,23,-99.99,,,0.00,Acu-Link.com,2013-10-01 23:08:00,
2013-10-01 18:23:00,73.9,32.7,29.84,NE,45,3.7,-999.0,22,-99.99,,,0.00,Acu-Link.com,2013-10-01 23:23:00,
2013-10-01 18:39:00,74.7,35.5,29.84,NNE,22,1.7,-999.0,24,-99.99,,,0.00,Acu-Link.com,2013-10-01 23:39:00,
2013-10-01 18:54:00,72.9,40.5,29.84,NNE,22,0.0,-999.0,31,-99.99,,,0.00,Acu-Link.com,2013-10-01 23:54:00,
2013-10-01 19:09:00,71.6,37.7,29.84,NNE,22,2.7,-999.0,29,-99.99,,,0.00,Acu-Link.com,2013-10-02 00:09:00,
2013-10-01 19:24:00,68.4,43.1,29.84,NNW,337,1.7,-999.0,40,-99.99,,,0.00,Acu-Link.com,2013-10-02 00:24:00,
2013-10-01 19:40:00,66.9,43.7,29.85,NNW,337,1.7,-999.0,43,-99.99,,,0.00,Acu-Link.com,2013-10-02 00:40:00,
2013-10-01 19:55:00,65.5,40.5,29.85,WNW,292,2.2,-999.0,40,-99.99,,,0.00,Acu-Link.com,2013-10-02 00:55:00,
2013-10-01 20:11:00,65.1,38.2,29.85,NNW,337,2.7,-999.0,37,-99.99,,,0.00,Acu-Link.com,2013-10-02 01:11:00,
2013-10-01 20:26:00,64.6,36.3,29.85,North,0,3.2,-999.0,35,-99.99,,,0.00,Acu-Link.com,2013-10-02 01:26:00,
2013-10-01 20:41:00,64.2,37.4,29.86,NNE,22,2.7,-999.0,37,-99.99,,,0.00,Acu-Link.com,2013-10-02 01:41:00,
2013-10-01 20:56:00,63.9,37.1,29.87,NE,45,3.7,-999.0,37,-99.99,,,0.00,Acu-Link.com,2013-10-02 01:56:00,
2013-10-01 21:11:00,63.0,37.7,29.87,NNE,22,2.7,-999.0,39,-99.99,,,0.00,Acu-Link.com,2013-10-02 02:11:00,
2013-10-01 21:26:00,62.1,37.5,29.87,North,0,2.7,-999.0,40,-99.99,,,0.00,Acu-Link.com,2013-10-02 02:26:00,
2013-10-01 21:42:00,61.9,36.7,29.87,ENE,67,2.2,-999.0,39,-99.99,,,0.00,Acu-Link.com,2013-10-02 02:42:00,
2013-10-01 21:57:00,61.5,37.0,29.88,NNE,22,3.7,-999.0,40,-99.99,,,0.00,Acu-Link.com,2013-10-02 02:57:00,
2013-10-01 22:13:00,60.4,37.8,29.88,NE,45,2.2,-999.0,43,-99.99,,,0.00,Acu-Link.com,2013-10-02 03:13:00,
2013-10-01 22:28:00,59.2,37.9,29.88,NNW,337,2.7,-999.0,45,-99.99,,,0.00,Acu-Link.com,2013-10-02 03:28:00,
2013-10-01 22:43:00,59.2,36.7,29.88,NNW,337,2.7,-999.0,43,-99.99,,,0.00,Acu-Link.com,2013-10-02 03:43:00,
2013-10-01 22:58:00,59.2,36.7,29.89,North,0,2.7,-999.0,43,-99.99,,,0.00,Acu-Link.com,2013-10-02 03:58:00,
2013-10-01 23:13:00,58.8,36.4,29.89,NNE,22,3.2,-999.0,43,-99.99,,,0.00,Acu-Link.com,2013-10-02 04:13:00,
2013-10-01 23:29:00,57.9,36.1,29.89,ENE,67,2.7,-999.0,44,-99.99,,,0.00,Acu-Link.com,2013-10-02 04:29:00,
2013-10-01 23:44:00,57.0,36.4,29.90,NNE,22,2.7,-999.0,46,-99.99,,,0.00,Acu-Link.com,2013-10-02 04:44:00,
2013-10-01 23:59:00,56.7,36.7,29.89,NNE,22,3.7,-999.0,47,-99.99,,,0.00,Acu-Link.com,2013-10-02 04:59:00,